Time,TemperatureF,DewpointF,PressureIn,WindDirection,WindDirectionDegrees,WindSpeedMPH,WindSpeedGustMPH,Humidity,HourlyPrecipIn,Conditions,Clouds,dailyrainin,SoftwareType,DateUTC
2013-04-26 00:00:00,50.1,46.1,30.09,WNW,292,2.0,8.0,86,0.00,,SKC,0.00,VWS V14.01,2013-04-26 07:00:00,
2013-04-26 00:10:00,50.0,46.0,30.09,West,271,4.0,7.0,86,0.00,,SKC,0.00,VWS V14.01,2013-04-26 07:10:00,
2013-04-26 00:15:00,50.0,46.0,30.10,West,273,4.0,5.0,86,0.00,,SKC,0.00,VWS V14.01,2013-04-26 07:15:00,
2013-04-26 00:20:00,50.0,46.3,30.10,West,267,0.0,5.0,87,0.00,,SKC,0.00,VWS V14.01,2013-04-26 07:20:00,
2013-04-26 00:25:00,50.0,46.3,30.10,SW,219,0.0,6.0,87,0.00,,SKC,0.00,VWS V14.01,2013-04-26 07:25:00,
2013-04-26 00:30:00,50.0,46.3,30.10,WNW,286,1.0,6.0,87,0.00,,SKC,0.00,VWS V14.01,2013-04-26 07:30:00,
2013-04-26 00:35:00,50.1,46.4,30.10,WNW,302,1.0,6.0,87,0.00,,SKC,0.00,VWS V14.01,2013-04-26 07:35:00,
2013-04-26 00:40:00,50.1,46.4,30.10,WNW,289,0.0,5.0,87,0.00,,SKC,0.00,VWS V14.01,2013-04-26 07:40:00,
2013-04-26 00:45:00,50.1,46.4,30.10,West,272,0.0,6.0,87,0.00,,SKC,0.00,VWS V14.01,2013-04-26 07:45:00,
2013-04-26 00:50:00,50.2,46.5,30.10,West,273,2.0,7.0,87,0.00,,SKC,0.00,VWS V14.01,2013-04-26 07:50:00,
2013-04-26 00:55:00,50.3,46.6,30.10,SW,216,1.0,8.0,87,0.00,,SKC,0.00,VWS V14.01,2013-04-26 07:55:00,
2013-04-26 01:00:00,50.4,46.7,30.10,WSW,254,0.0,6.0,87,0.00,,SKC,0.00,VWS V14.01,2013-04-26 08:00:00,
2013-04-26 01:05:00,50.5,46.8,30.09,West,277,2.0,5.0,87,0.00,,SKC,0.00,VWS V14.01,2013-04-26 08:05:00,
2013-04-26 01:10:00,50.5,46.8,30.09,NW,315,0.0,4.0,87,0.00,,SKC,0.00,VWS V14.01,2013-04-26 08:10:00,
2013-04-26 01:15:00,50.5,46.8,30.09,WNW,294,3.0,4.0,87,0.00,,SKC,0.00,VWS V14.01,2013-04-26 08:15:00,
2013-04-26 01:20:00,50.6,46.9,30.09,West,271,0.0,6.0,87,0.00,,SKC,0.00,VWS V14.01,2013-04-26 08:20:00,
2013-04-26 01:25:00,50.6,46.9,30.09,WNW,295,1.0,4.0,87,0.00,,SKC,0.00,VWS V14.01,2013-04-26 08:25:00,
2013-04-26 01:30:00,50.7,46.7,30.09,West,263,0.0,4.0,86,0.00,,SKC,0.00,VWS V14.01,2013-04-26 08:30:00,
2013-04-26 01:35:00,50.7,46.7,30.09,West,263,0.0,2.0,86,0.00,,SKC,0.00,VWS V14.01,2013-04-26 08:35:00,
2013-04-26 01:40:00,50.7,46.7,30.09,West,259,4.0,4.0,86,0.00,,SKC,0.00,VWS V14.01,2013-04-26 08:40:00,
2013-04-26 01:45:00,50.6,46.6,30.09,West,264,0.0,5.0,86,0.00,,SKC,0.00,VWS V14.01,2013-04-26 08:45:00,
2013-04-26 01:50:00,50.6,46.6,30.09,SSW,210,0.0,5.0,86,0.00,,SKC,0.00,VWS V14.01,2013-04-26 08:50:00,
2013-04-26 01:55:00,50.5,46.5,30.09,WNW,284,0.0,4.0,86,0.00,,SKC,0.00,VWS V14.01,2013-04-26 08:55:00,
2013-04-26 02:05:00,50.3,46.3,30.09,SW,232,4.0,5.0,86,0.00,,SKC,0.00,VWS V14.01,2013-04-26 09:05:00,
2013-04-26 02:10:00,50.2,46.2,30.09,WNW,283,1.0,6.0,86,0.00,,SKC,0.00,VWS V14.01,2013-04-26 09:10:00,
2013-04-26 02:15:00,50.1,46.1,30.09,West,277,3.0,6.0,86,0.00,,SKC,0.00,VWS V14.01,2013-04-26 09:15:00,
2013-04-26 02:20:00,50.0,46.0,30.09,West,268,2.0,5.0,86,0.00,,SKC,0.00,VWS V14.01,2013-04-26 09:20:00,
2013-04-26 02:25:00,49.9,46.2,30.09,WNW,286,1.0,7.0,87,0.00,,SKC,0.00,VWS V14.01,2013-04-26 09:25:00,
2013-04-26 02:30:00,49.7,46.0,30.09,West,277,5.0,5.0,87,0.00,,SKC,0.00,VWS V14.01,2013-04-26 09:30:00,
2013-04-26 02:35:00,49.6,45.9,30.09,WNW,284,2.0,8.0,87,0.00,,SKC,0.00,VWS V14.01,2013-04-26 09:35:00,
2013-04-26 02:40:00,49.6,45.9,30.10,West,272,3.0,6.0,87,0.00,,SKC,0.00,VWS V14.01,2013-04-26 09:40:00,
2013-04-26 02:45:00,49.5,45.8,30.09,West,273,5.0,6.0,87,0.00,,SKC,0.00,VWS V14.01,2013-04-26 09:45:00,
2013-04-26 02:50:00,49.4,45.7,30.10,WSW,256,4.0,5.0,87,0.00,,SKC,0.00,VWS V14.01,2013-04-26 09:50:00,
2013-04-26 02:55:00,49.3,45.6,30.10,West,269,0.0,5.0,87,0.00,,SKC,0.00,VWS V14.01,2013-04-26 09:55:00,
2013-04-26 03:00:00,49.2,45.8,30.10,WNW,292,0.0,4.0,88,0.00,,SKC,0.00,VWS V14.01,2013-04-26 10:00:00,
2013-04-26 03:05:00,49.2,45.8,30.09,West,276,1.0,6.0,88,0.00,,SKC,0.00,VWS V14.01,2013-04-26 10:05:00,
2013-04-26 03:10:00,49.2,45.8,30.10,WNW,291,2.0,7.0,88,0.00,,SKC,0.00,VWS V14.01,2013-04-26 10:10:00,
2013-04-26 03:15:00,49.2,45.8,30.09,West,269,1.0,5.0,88,0.00,,SKC,0.00,VWS V14.01,2013-04-26 10:15:00,
2013-04-26 03:20:00,49.2,45.8,30.10,WNW,295,2.0,8.0,88,0.00,,SKC,0.00,VWS V14.01,2013-04-26 10:20:00,
2013-04-26 03:25:00,49.2,45.8,30.10,WNW,290,4.0,9.0,88,0.00,,SKC,0.00,VWS V14.01,2013-04-26 10:25:00,
2013-04-26 03:30:00,49.2,45.8,30.10,West,261,2.0,6.0,88,0.00,,SKC,0.00,VWS V14.01,2013-04-26 10:30:00,
2013-04-26 03:35:00,49.1,45.7,30.10,WNW,286,4.0,6.0,88,0.00,,SKC,0.00,VWS V14.01,2013-04-26 10:35:00,
2013-04-26 03:40:00,49.0,45.6,30.10,WNW,294,3.0,6.0,88,0.00,,SKC,0.00,VWS V14.01,2013-04-26 10:40:00,
2013-04-26 03:45:00,49.0,45.6,30.10,WSW,257,1.0,6.0,88,0.00,,SKC,0.00,VWS V14.01,2013-04-26 10:45:00,
2013-04-26 03:50:00,49.0,45.6,30.10,WNW,287,1.0,5.0,88,0.00,,SKC,0.00,VWS V14.01,2013-04-26 10:50:00,
2013-04-26 03:55:00,48.9,45.5,30.10,NW,325,0.0,5.0,88,0.00,,SKC,0.00,VWS V14.01,2013-04-26 10:55:00,
2013-04-26 04:00:00,48.8,45.4,30.10,WNW,288,0.0,4.0,88,0.00,,SKC,0.00,VWS V14.01,2013-04-26 11:00:00,
2013-04-26 04:05:00,48.8,45.4,30.10,WNW,297,2.0,6.0,88,0.00,,SKC,0.00,VWS V14.01,2013-04-26 11:05:00,
2013-04-26 04:10:00,48.7,45.3,30.11,WSW,256,2.0,6.0,88,0.00,,SKC,0.00,VWS V14.01,2013-04-26 11:10:00,
2013-04-26 04:15:00,48.7,45.6,30.11,NNW,336,0.0,5.0,89,0.00,,SKC,0.00,VWS V14.01,2013-04-26 11:15:00,
2013-04-26 04:20:00,48.7,45.6,30.11,NW,318,0.0,5.0,89,0.00,,SKC,0.00,VWS V14.01,2013-04-26 11:20:00,
2013-04-26 04:25:00,48.7,45.6,30.11,WNW,291,0.0,4.0,89,0.00,,SKC,0.00,VWS V14.01,2013-04-26 11:25:00,
2013-04-26 04:35:00,48.6,45.5,30.11,WNW,300,0.0,3.0,89,0.00,,SKC,0.00,VWS V14.01,2013-04-26 11:35:00,
2013-04-26 04:40:00,48.6,45.5,30.11,West,277,0.0,4.0,89,0.00,,SKC,0.00,VWS V14.01,2013-04-26 11:40:00,
2013-04-26 04:45:00,48.5,45.4,30.11,West,277,0.0,0.0,89,0.00,,SKC,0.00,VWS V14.01,2013-04-26 11:45:00,
2013-04-26 04:50:00,48.1,44.7,30.11,West,277,0.0,0.0,88,0.00,,SKC,0.00,VWS V14.01,2013-04-26 11:50:00,
2013-04-26 04:55:00,47.6,44.2,30.11,West,277,0.0,0.0,88,0.00,,SKC,0.00,VWS V14.01,2013-04-26 11:55:00,
2013-04-26 05:00:00,47.2,43.8,30.11,West,277,0.0,0.0,88,0.00,,SKC,0.00,VWS V14.01,2013-04-26 12:00:00,
2013-04-26 05:05:00,47.0,43.9,30.11,West,277,0.0,0.0,89,0.00,,SKC,0.00,VWS V14.01,2013-04-26 12:05:00,
2013-04-26 05:10:00,46.7,43.6,30.11,West,277,0.0,1.0,89,0.00,,SKC,0.00,VWS V14.01,2013-04-26 12:10:00,
2013-04-26 05:15:00,46.5,43.4,30.11,West,277,0.0,2.0,89,0.00,,SKC,0.00,VWS V14.01,2013-04-26 12:15:00,
2013-04-26 05:20:00,46.4,43.6,30.11,West,277,0.0,0.0,90,0.00,,SKC,0.00,VWS V14.01,2013-04-26 12:20:00,
2013-04-26 05:25:00,46.4,43.6,30.11,West,277,0.0,0.0,90,0.00,,SKC,0.00,VWS V14.01,2013-04-26 12:25:00,
2013-04-26 05:30:00,46.5,44.0,30.12,West,277,0.0,0.0,91,0.00,,SKC,0.00,VWS V14.01,2013-04-26 12:30:00,
2013-04-26 05:35:00,46.4,43.9,30.12,West,277,0.0,0.0,91,0.00,,SKC,0.00,VWS V14.01,2013-04-26 12:35:00,
2013-04-26 05:40:00,46.2,43.4,30.12,West,277,0.0,0.0,90,0.00,,SKC,0.00,VWS V14.01,2013-04-26 12:40:00,
2013-04-26 05:45:00,45.9,43.1,30.12,West,277,0.0,0.0,90,0.00,,SKC,0.00,VWS V14.01,2013-04-26 12:45:00,
2013-04-26 05:50:00,45.6,42.8,30.12,West,277,0.0,0.0,90,0.00,,SKC,0.00,VWS V14.01,2013-04-26 12:50:00,
2013-04-26 05:55:00,45.4,42.6,30.12,West,277,0.0,0.0,90,0.00,,SKC,0.00,VWS V14.01,2013-04-26 12:55:00,
2013-04-26 06:00:00,45.3,42.8,30.13,West,277,0.0,0.0,91,0.00,,SKC,0.00,VWS V14.01,2013-04-26 13:00:00,
2013-04-26 06:05:00,45.1,42.6,30.13,West,277,0.0,0.0,91,0.00,,SKC,0.00,VWS V14.01,2013-04-26 13:05:00,
2013-04-26 06:10:00,45.0,42.5,30.13,West,277,0.0,0.0,91,0.00,,SKC,0.00,VWS V14.01,2013-04-26 13:10:00,
2013-04-26 06:15:00,45.0,42.5,30.13,West,277,0.0,0.0,91,0.00,,SKC,0.00,VWS V14.01,2013-04-26 13:15:00,
2013-04-26 06:20:00,44.9,42.4,30.13,West,277,0.0,0.0,91,0.00,,SKC,0.00,VWS V14.01,2013-04-26 13:20:00,
2013-04-26 06:25:00,44.9,42.7,30.14,West,277,0.0,0.0,92,0.00,,SKC,0.00,VWS V14.01,2013-04-26 13:25:00,
2013-04-26 06:30:00,44.9,42.7,30.14,West,277,0.0,0.0,92,0.00,,SKC,0.00,VWS V14.01,2013-04-26 13:30:00,
2013-04-26 06:35:00,44.9,42.7,30.14,West,277,0.0,0.0,92,0.00,,SKC,0.00,VWS V14.01,2013-04-26 13:35:00,
2013-04-26 06:45:00,44.8,42.6,30.14,West,277,0.0,0.0,92,0.00,,SKC,0.00,VWS V14.01,2013-04-26 13:45:00,
2013-04-26 06:50:00,44.8,42.6,30.14,West,277,0.0,0.0,92,0.00,,SKC,0.00,VWS V14.01,2013-04-26 13:50:00,
2013-04-26 06:55:00,44.8,42.6,30.15,West,277,0.0,0.0,92,0.00,,SKC,0.00,VWS V14.01,2013-04-26 13:55:00,
2013-04-26 07:00:00,44.9,43.0,30.15,West,277,0.0,0.0,93,0.00,,SKC,0.00,VWS V14.01,2013-04-26 14:00:00,
2013-04-26 07:05:00,45.0,43.1,30.15,West,277,0.0,0.0,93,0.00,,SKC,0.00,VWS V14.01,2013-04-26 14:05:00,
2013-04-26 07:10:00,45.2,43.3,30.16,West,277,0.0,0.0,93,0.00,,SKC,0.00,VWS V14.01,2013-04-26 14:10:00,
2013-04-26 07:20:00,45.9,44.0,30.16,West,277,0.0,0.0,93,0.00,,SKC,0.00,VWS V14.01,2013-04-26 14:20:00,
2013-04-26 07:25:00,46.1,44.2,30.16,West,277,0.0,0.0,93,0.00,,SKC,0.00,VWS V14.01,2013-04-26 14:25:00,
2013-04-26 07:30:00,46.4,44.8,30.16,West,277,0.0,0.0,94,0.00,,SKC,0.00,VWS V14.01,2013-04-26 14:30:00,
2013-04-26 07:35:00,46.7,44.8,30.17,West,277,0.0,0.0,93,0.00,,SKC,0.00,VWS V14.01,2013-04-26 14:35:00,
2013-04-26 07:40:00,46.9,45.0,30.17,West,277,0.0,0.0,93,0.00,,SKC,0.00,VWS V14.01,2013-04-26 14:40:00,
2013-04-26 07:45:00,47.2,45.3,30.17,West,278,2.0,2.0,93,0.00,,SKC,0.00,VWS V14.01,2013-04-26 14:45:00,
2013-04-26 07:50:00,47.7,45.8,30.17,West,277,0.0,3.0,93,0.00,,SKC,0.00,VWS V14.01,2013-04-26 14:50:00,
2013-04-26 07:55:00,48.2,46.3,30.17,West,277,0.0,2.0,93,0.00,,SKC,0.00,VWS V14.01,2013-04-26 14:55:00,
2013-04-26 08:00:00,48.7,46.5,30.17,NW,307,1.0,5.0,92,0.00,,SKC,0.00,VWS V14.01,2013-04-26 15:00:00,
2013-04-26 08:10:00,50.0,47.5,30.18,NW,313,2.0,5.0,91,0.00,,SKC,0.00,VWS V14.01,2013-04-26 15:10:00,
2013-04-26 08:15:00,50.5,47.7,30.18,WSW,246,1.0,5.0,90,0.00,,SKC,0.00,VWS V14.01,2013-04-26 15:15:00,
2013-04-26 08:20:00,50.9,47.8,30.18,WSW,244,1.0,5.0,89,0.00,,SKC,0.00,VWS V14.01,2013-04-26 15:20:00,
2013-04-26 08:25:00,51.3,47.9,30.18,SW,230,2.0,4.0,88,0.00,,SKC,0.00,VWS V14.01,2013-04-26 15:25:00,
2013-04-26 08:30:00,51.5,47.8,30.18,WSW,249,2.0,6.0,87,0.00,,SKC,0.00,VWS V14.01,2013-04-26 15:30:00,
2013-04-26 08:35:00,51.9,48.2,30.18,West,259,0.0,6.0,87,0.00,,SKC,0.00,VWS V14.01,2013-04-26 15:35:00,
2013-04-26 08:45:00,52.7,48.3,30.18,WNW,282,0.0,7.0,85,0.00,,SKC,0.00,VWS V14.01,2013-04-26 15:45:00,
2013-04-26 08:50:00,52.9,48.5,30.18,WSW,246,0.0,6.0,85,0.00,,SKC,0.00,VWS V14.01,2013-04-26 15:50:00,
2013-04-26 08:55:00,53.2,48.5,30.18,WSW,248,0.0,4.0,84,0.00,,SKC,0.00,VWS V14.01,2013-04-26 15:55:00,
2013-04-26 09:00:00,53.5,48.5,30.19,SW,225,0.0,6.0,83,0.00,,SKC,0.00,VWS V14.01,2013-04-26 16:00:00,
2013-04-26 09:10:00,54.2,49.2,30.19,South,171,0.0,4.0,83,0.00,,SKC,0.00,VWS V14.01,2013-04-26 16:10:00,
2013-04-26 09:15:00,55.0,49.3,30.19,SSE,151,0.0,5.0,81,0.00,,SKC,0.00,VWS V14.01,2013-04-26 16:15:00,
2013-04-26 09:20:00,55.7,49.6,30.18,SSE,151,0.0,2.0,80,0.00,,SKC,0.00,VWS V14.01,2013-04-26 16:20:00,
2013-04-26 09:25:00,56.1,49.7,30.19,SSE,152,5.0,5.0,79,0.00,,SKC,0.00,VWS V14.01,2013-04-26 16:25:00,
2013-04-26 09:30:00,56.3,49.9,30.18,West,267,2.0,5.0,79,0.00,,SKC,0.00,VWS V14.01,2013-04-26 16:30:00,
2013-04-26 09:35:00,56.4,49.6,30.18,WNW,286,2.0,5.0,78,0.00,,SKC,0.00,VWS V14.01,2013-04-26 16:35:00,
2013-04-26 09:40:00,56.8,50.0,30.18,West,260,1.0,4.0,78,0.00,,SKC,0.00,VWS V14.01,2013-04-26 16:40:00,
2013-04-26 09:45:00,57.6,50.5,30.18,SSE,160,0.0,5.0,77,0.00,,SKC,0.00,VWS V14.01,2013-04-26 16:45:00,
2013-04-26 09:55:00,59.8,51.1,30.18,SSE,155,0.0,5.0,73,0.00,,SKC,0.00,VWS V14.01,2013-04-26 16:55:00,
2013-04-26 10:00:00,60.7,51.2,30.18,West,277,0.0,6.0,71,0.00,,SKC,0.00,VWS V14.01,2013-04-26 17:00:00,
2013-04-26 10:05:00,61.5,51.6,30.18,South,180,0.0,6.0,70,0.00,,SKC,0.00,VWS V14.01,2013-04-26 17:05:00,
2013-04-26 10:15:00,61.7,51.4,30.18,WSW,257,0.0,7.0,69,0.00,,SKC,0.00,VWS V14.01,2013-04-26 17:15:00,
2013-04-26 10:25:00,62.2,51.9,30.18,NNW,332,4.0,6.0,69,0.00,,SKC,0.00,VWS V14.01,2013-04-26 17:25:00,
2013-04-26 10:30:00,62.7,52.0,30.18,WNW,290,0.0,4.0,68,0.00,,SKC,0.00,VWS V14.01,2013-04-26 17:30:00,
2013-04-26 10:40:00,64.8,53.2,30.18,West,279,0.0,6.0,66,0.00,,SKC,0.00,VWS V14.01,2013-04-26 17:40:00,
2013-04-26 10:45:00,65.5,53.0,30.18,West,262,0.0,6.0,64,0.00,,SKC,0.00,VWS V14.01,2013-04-26 17:45:00,
2013-04-26 10:50:00,66.4,53.0,30.18,West,274,0.0,3.0,62,0.00,,SKC,0.00,VWS V14.01,2013-04-26 17:50:00,
2013-04-26 11:00:00,67.8,53.9,30.18,WNW,296,0.0,2.0,61,0.00,,SKC,0.00,VWS V14.01,2013-04-26 18:00:00,
2013-04-26 11:10:00,69.0,53.6,30.18,SW,236,0.0,4.0,58,0.00,,SKC,0.00,VWS V14.01,2013-04-26 18:10:00,
2013-04-26 11:20:00,69.2,53.8,30.18,WNW,285,0.0,5.0,58,0.00,,SKC,0.00,VWS V14.01,2013-04-26 18:20:00,
2013-04-26 11:25:00,70.0,54.6,30.18,WNW,284,0.0,4.0,58,0.00,,SKC,0.00,VWS V14.01,2013-04-26 18:25:00,
2013-04-26 11:35:00,69.9,54.0,30.18,WNW,297,0.0,6.0,57,0.00,,SKC,0.00,VWS V14.01,2013-04-26 18:35:00,
2013-04-26 11:40:00,69.7,53.8,30.18,NW,310,0.0,6.0,57,0.00,,SKC,0.00,VWS V14.01,2013-04-26 18:40:00,
2013-04-26 11:45:00,70.7,54.2,30.18,SW,236,0.0,5.0,56,0.00,,SKC,0.00,VWS V14.01,2013-04-26 18:45:00,
2013-04-26 11:55:00,71.7,54.2,30.17,SSW,194,1.0,6.0,54,0.00,,SKC,0.00,VWS V14.01,2013-04-26 18:55:00,
2013-04-26 12:00:00,71.9,54.4,30.17,NNW,340,2.0,6.0,54,0.00,,SKC,0.00,VWS V14.01,2013-04-26 19:00:00,
2013-04-26 12:10:00,73.1,53.9,30.17,West,265,5.0,5.0,51,0.00,,SKC,0.00,VWS V14.01,2013-04-26 19:10:00,
2013-04-26 12:20:00,72.7,53.0,30.16,WNW,299,0.0,7.0,50,0.00,,SKC,0.00,VWS V14.01,2013-04-26 19:20:00,
2013-04-26 12:25:00,73.3,54.1,30.16,West,275,6.0,6.0,51,0.00,,SKC,0.00,VWS V14.01,2013-04-26 19:25:00,
2013-04-26 12:30:00,73.9,54.7,30.16,NW,322,0.0,8.0,51,0.00,,SKC,0.00,VWS V14.01,2013-04-26 19:30:00,
2013-04-26 12:40:00,73.5,54.8,30.16,WNW,290,1.0,7.0,52,0.00,,SKC,0.00,VWS V14.01,2013-04-26 19:40:00,
2013-04-26 12:50:00,73.0,54.9,30.16,NW,325,2.0,7.0,53,0.00,,SKC,0.00,VWS V14.01,2013-04-26 19:50:00,
2013-04-26 12:55:00,72.5,54.9,30.15,NNW,334,5.0,6.0,54,0.00,,SKC,0.00,VWS V14.01,2013-04-26 19:55:00,
2013-04-26 13:00:00,72.6,54.5,30.15,West,259,2.0,6.0,53,0.00,,SKC,0.00,VWS V14.01,2013-04-26 20:00:00,
2013-04-26 13:10:00,73.4,55.8,30.15,NNW,329,4.0,7.0,54,0.00,,SKC,0.00,VWS V14.01,2013-04-26 20:10:00,
2013-04-26 13:15:00,73.9,55.2,30.15,West,266,5.0,7.0,52,0.00,,SKC,0.00,VWS V14.01,2013-04-26 20:15:00,
2013-04-26 13:25:00,74.9,55.6,30.15,WNW,295,4.0,7.0,51,0.00,,SKC,0.00,VWS V14.01,2013-04-26 20:25:00,
2013-04-26 13:30:00,75.4,55.5,30.15,WNW,300,5.0,6.0,50,0.00,,SKC,0.00,VWS V14.01,2013-04-26 20:30:00,
2013-04-26 13:35:00,76.1,56.1,30.14,WNW,292,4.0,8.0,50,0.00,,SKC,0.00,VWS V14.01,2013-04-26 20:35:00,
2013-04-26 13:45:00,76.2,55.7,30.14,NW,324,3.0,7.0,49,0.00,,SKC,0.00,VWS V14.01,2013-04-26 20:45:00,
2013-04-26 13:55:00,76.0,56.0,30.14,NW,319,4.0,6.0,50,0.00,,SKC,0.00,VWS V14.01,2013-04-26 20:55:00,
2013-04-26 14:00:00,75.4,55.5,30.14,WNW,303,5.0,9.0,50,0.00,,SKC,0.00,VWS V14.01,2013-04-26 21:00:00,
2013-04-26 14:05:00,75.5,55.6,30.14,NW,304,4.0,7.0,50,0.00,,SKC,0.00,VWS V14.01,2013-04-26 21:05:00,
2013-04-26 14:15:00,75.2,55.3,30.14,West,272,4.0,7.0,50,0.00,,SKC,0.00,VWS V14.01,2013-04-26 21:15:00,
2013-04-26 14:20:00,75.3,55.4,30.14,North,360,6.0,8.0,50,0.00,,SKC,0.00,VWS V14.01,2013-04-26 21:20:00,
2013-04-26 14:25:00,75.4,55.5,30.14,West,273,2.0,8.0,50,0.00,,SKC,0.00,VWS V14.01,2013-04-26 21:25:00,
2013-04-26 14:30:00,75.6,55.7,30.14,NNE,19,7.0,9.0,50,0.00,,SKC,0.00,VWS V14.01,2013-04-26 21:30:00,
2013-04-26 14:40:00,75.3,55.4,30.13,WNW,291,0.0,6.0,50,0.00,,SKC,0.00,VWS V14.01,2013-04-26 21:40:00,
2013-04-26 14:45:00,75.8,55.9,30.13,NW,310,1.0,7.0,50,0.00,,SKC,0.00,VWS V14.01,2013-04-26 21:45:00,
2013-04-26 14:50:00,75.8,55.9,30.13,WNW,284,1.0,6.0,50,0.00,,SKC,0.00,VWS V14.01,2013-04-26 21:50:00,
2013-04-26 14:55:00,75.9,56.0,30.13,North,11,5.0,8.0,50,0.00,,SKC,0.00,VWS V14.01,2013-04-26 21:55:00,
2013-04-26 15:00:00,76.0,56.0,30.13,NW,315,5.0,9.0,50,0.00,,SKC,0.00,VWS V14.01,2013-04-26 22:00:00,
2013-04-26 15:10:00,76.6,56.6,30.12,WSW,249,4.0,9.0,50,0.00,,SKC,0.00,VWS V14.01,2013-04-26 22:10:00,
2013-04-26 15:20:00,76.1,55.6,30.12,West,273,0.0,11.0,49,0.00,,SKC,0.00,VWS V14.01,2013-04-26 22:20:00,
2013-04-26 15:25:00,76.3,55.8,30.12,NW,311,6.0,8.0,49,0.00,,SKC,0.00,VWS V14.01,2013-04-26 22:25:00,
2013-04-26 15:30:00,76.2,56.2,30.12,NNW,338,3.0,8.0,50,0.00,,SKC,0.00,VWS V14.01,2013-04-26 22:30:00,
2013-04-26 15:40:00,76.6,56.0,30.12,NW,319,5.0,9.0,49,0.00,,SKC,0.00,VWS V14.01,2013-04-26 22:40:00,
2013-04-26 15:50:00,76.6,56.6,30.12,NW,312,6.0,9.0,50,0.00,,SKC,0.00,VWS V14.01,2013-04-26 22:50:00,
2013-04-26 15:55:00,76.3,56.3,30.12,North,9,4.0,10.0,50,0.00,,SKC,0.00,VWS V14.01,2013-04-26 22:55:00,
2013-04-26 16:00:00,75.8,55.9,30.11,NNW,338,6.0,10.0,50,0.00,,SKC,0.00,VWS V14.01,2013-04-26 23:00:00,
2013-04-26 16:05:00,75.4,56.0,30.11,NNW,330,4.0,10.0,51,0.00,,SKC,0.00,VWS V14.01,2013-04-26 23:05:00,
2013-04-26 16:10:00,75.5,56.1,30.11,NW,305,1.0,7.0,51,0.00,,SKC,0.00,VWS V14.01,2013-04-26 23:10:00,
2013-04-26 16:20:00,76.2,56.2,30.11,WNW,284,0.0,7.0,50,0.00,,SKC,0.00,VWS V14.01,2013-04-26 23:20:00,
2013-04-26 16:30:00,76.9,56.9,30.11,WSW,242,1.0,6.0,50,0.00,,SKC,0.00,VWS V14.01,2013-04-26 23:30:00,
2013-04-26 16:40:00,76.9,56.3,30.11,WNW,299,2.0,8.0,49,0.00,,SKC,0.00,VWS V14.01,2013-04-26 23:40:00,
2013-04-26 16:45:00,76.8,56.2,30.10,NW,306,6.0,9.0,49,0.00,,SKC,0.00,VWS V14.01,2013-04-26 23:45:00,
2013-04-26 16:50:00,76.6,56.6,30.10,NW,313,4.0,8.0,50,0.00,,SKC,0.00,VWS V14.01,2013-04-26 23:50:00,
2013-04-26 17:05:00,75.8,56.4,30.11,West,271,3.0,8.0,51,0.00,,SKC,0.00,VWS V14.01,2013-04-27 00:05:00,
2013-04-26 17:10:00,75.9,56.5,30.11,West,271,2.0,10.0,51,0.00,,SKC,0.00,VWS V14.01,2013-04-27 00:10:00,
2013-04-26 17:15:00,75.9,56.5,30.11,West,259,8.0,8.0,51,0.00,,SKC,0.00,VWS V14.01,2013-04-27 00:15:00,
2013-04-26 17:25:00,76.2,56.2,30.11,NNW,347,2.0,8.0,50,0.00,,SKC,0.00,VWS V14.01,2013-04-27 00:25:00,
2013-04-26 17:30:00,76.7,56.1,30.10,NW,306,6.0,6.0,49,0.00,,SKC,0.00,VWS V14.01,2013-04-27 00:30:00,
2013-04-26 17:40:00,77.4,55.6,30.10,WNW,295,6.0,7.0,47,0.00,,SKC,0.00,VWS V14.01,2013-04-27 00:40:00,
2013-04-26 17:50:00,77.5,56.3,30.10,WSW,249,0.0,4.0,48,0.00,,SKC,0.00,VWS V14.01,2013-04-27 00:50:00,
2013-04-26 17:55:00,77.5,55.7,30.10,SSW,194,0.0,6.0,47,0.00,,SKC,0.00,VWS V14.01,2013-04-27 00:55:00,
2013-04-26 18:05:00,76.7,56.1,30.10,NW,309,5.0,8.0,49,0.00,,SKC,0.00,VWS V14.01,2013-04-27 01:05:00,
2013-04-26 18:10:00,76.0,56.0,30.10,WNW,302,4.0,7.0,50,0.00,,SKC,0.00,VWS V14.01,2013-04-27 01:10:00,
2013-04-26 18:15:00,74.9,55.6,30.11,NW,304,1.0,8.0,51,0.00,,SKC,0.00,VWS V14.01,2013-04-27 01:15:00,
2013-04-26 18:20:00,74.7,54.3,30.11,West,274,0.0,4.0,49,0.00,,SKC,0.00,VWS V14.01,2013-04-27 01:20:00,
2013-04-26 18:25:00,74.6,54.2,30.11,West,264,2.0,6.0,49,0.00,,SKC,0.00,VWS V14.01,2013-04-27 01:25:00,
2013-04-26 18:35:00,73.8,54.6,30.11,SSE,160,2.0,5.0,51,0.00,,SKC,0.00,VWS V14.01,2013-04-27 01:35:00,
2013-04-26 18:40:00,73.1,54.5,30.11,SSE,159,0.0,5.0,52,0.00,,SKC,0.00,VWS V14.01,2013-04-27 01:40:00,
2013-04-26 18:45:00,72.4,53.8,30.11,South,170,4.0,6.0,52,0.00,,SKC,0.00,VWS V14.01,2013-04-27 01:45:00,
2013-04-26 18:50:00,71.8,53.8,30.11,SSE,159,1.0,5.0,53,0.00,,SKC,0.00,VWS V14.01,2013-04-27 01:50:00,
2013-04-26 19:00:00,70.7,53.8,30.11,South,176,2.0,5.0,55,0.00,,SKC,0.00,VWS V14.01,2013-04-27 02:00:00,
2013-04-26 19:10:00,69.8,53.4,30.11,South,169,1.0,6.0,56,0.00,,SKC,0.00,VWS V14.01,2013-04-27 02:10:00,
2013-04-26 19:20:00,69.0,53.2,30.11,SW,217,0.0,1.0,57,0.00,,SKC,0.00,VWS V14.01,2013-04-27 02:20:00,
2013-04-26 19:25:00,68.5,52.7,30.11,WSW,246,0.0,2.0,57,0.00,,SKC,0.00,VWS V14.01,2013-04-27 02:25:00,
2013-04-26 19:30:00,68.0,52.7,30.12,SSW,213,0.0,1.0,58,0.00,,SKC,0.00,VWS V14.01,2013-04-27 02:30:00,
2013-04-26 19:35:00,67.3,52.5,30.12,WNW,288,0.0,4.0,59,0.00,,SKC,0.00,VWS V14.01,2013-04-27 02:35:00,
2013-04-26 19:45:00,66.0,51.7,30.12,SSE,168,0.0,2.0,60,0.00,,SKC,0.00,VWS V14.01,2013-04-27 02:45:00,
2013-04-26 19:50:00,65.2,51.4,30.12,West,270,0.0,5.0,61,0.00,,SKC,0.00,VWS V14.01,2013-04-27 02:50:00,
2013-04-26 19:55:00,64.6,50.9,30.12,WSW,253,2.0,5.0,61,0.00,,SKC,0.00,VWS V14.01,2013-04-27 02:55:00,
2013-04-26 20:00:00,64.0,50.7,30.12,WSW,253,0.0,4.0,62,0.00,,SKC,0.00,VWS V14.01,2013-04-27 03:00:00,
2013-04-26 20:10:00,62.7,49.9,30.13,South,186,1.0,4.0,63,0.00,,SKC,0.00,VWS V14.01,2013-04-27 03:10:00,
2013-04-26 20:15:00,62.3,50.0,30.13,West,268,0.0,5.0,64,0.00,,SKC,0.00,VWS V14.01,2013-04-27 03:15:00,
2013-04-26 20:20:00,61.8,49.9,30.13,WSW,250,1.0,2.0,65,0.00,,SKC,0.00,VWS V14.01,2013-04-27 03:20:00,
2013-04-26 20:25:00,61.3,49.5,30.13,West,259,0.0,4.0,65,0.00,,SKC,0.00,VWS V14.01,2013-04-27 03:25:00,
2013-04-26 20:30:00,60.9,49.5,30.13,West,259,0.0,1.0,66,0.00,,SKC,0.00,VWS V14.01,2013-04-27 03:30:00,
2013-04-26 20:40:00,60.3,49.3,30.14,WNW,302,0.0,3.0,67,0.00,,SKC,0.00,VWS V14.01,2013-04-27 03:40:00,
2013-04-26 20:45:00,60.0,49.4,30.14,NNW,348,1.0,4.0,68,0.00,,SKC,0.00,VWS V14.01,2013-04-27 03:45:00,
2013-04-26 20:50:00,59.7,49.1,30.14,NNW,334,4.0,4.0,68,0.00,,SKC,0.00,VWS V14.01,2013-04-27 03:50:00,
2013-04-26 20:55:00,59.4,48.8,30.14,West,279,2.0,6.0,68,0.00,,SKC,0.00,VWS V14.01,2013-04-27 03:55:00,
2013-04-26 21:00:00,59.0,48.5,30.15,WNW,287,0.0,4.0,68,0.00,,SKC,0.00,VWS V14.01,2013-04-27 04:00:00,
2013-04-26 21:05:00,59.0,48.5,30.15,WNW,288,1.0,4.0,68,0.00,,SKC,0.00,VWS V14.01,2013-04-27 04:05:00,
2013-04-26 21:15:00,58.4,48.3,30.15,WNW,288,0.0,4.0,69,0.00,,SKC,0.00,VWS V14.01,2013-04-27 04:15:00,
2013-04-26 21:20:00,58.1,48.0,30.15,WNW,287,1.0,1.0,69,0.00,,SKC,0.00,VWS V14.01,2013-04-27 04:20:00,
2013-04-26 21:25:00,57.9,47.8,30.15,WNW,288,2.0,4.0,69,0.00,,SKC,0.00,VWS V14.01,2013-04-27 04:25:00,
2013-04-26 21:30:00,57.6,47.5,30.15,NW,315,2.0,4.0,69,0.00,,SKC,0.00,VWS V14.01,2013-04-27 04:30:00,
2013-04-26 21:35:00,57.4,47.3,30.15,West,270,4.0,5.0,69,0.00,,SKC,0.00,VWS V14.01,2013-04-27 04:35:00,
2013-04-26 21:40:00,57.1,47.0,30.15,West,268,0.0,5.0,69,0.00,,SKC,0.00,VWS V14.01,2013-04-27 04:40:00,
2013-04-26 21:45:00,56.9,47.2,30.15,West,268,0.0,2.0,70,0.00,,SKC,0.00,VWS V14.01,2013-04-27 04:45:00,
2013-04-26 21:50:00,56.8,47.1,30.15,West,269,0.0,3.0,70,0.00,,SKC,0.00,VWS V14.01,2013-04-27 04:50:00,
2013-04-26 22:00:00,56.4,46.8,30.16,WNW,283,1.0,6.0,70,0.00,,SKC,0.00,VWS V14.01,2013-04-27 05:00:00,
2013-04-26 22:05:00,56.3,47.0,30.15,WSW,256,0.0,2.0,71,0.00,,SKC,0.00,VWS V14.01,2013-04-27 05:05:00,
2013-04-26 22:10:00,56.0,46.4,30.16,WSW,257,0.0,4.0,70,0.00,,SKC,0.00,VWS V14.01,2013-04-27 05:10:00,
2013-04-26 22:15:00,55.8,46.5,30.15,WNW,290,2.0,6.0,71,0.00,,SKC,0.00,VWS V14.01,2013-04-27 05:15:00,
2013-04-26 22:25:00,55.3,46.4,30.16,WNW,290,0.0,2.0,72,0.00,,SKC,0.00,VWS V14.01,2013-04-27 05:25:00,
2013-04-26 22:35:00,54.9,46.1,30.16,WNW,297,0.0,3.0,72,0.00,,SKC,0.00,VWS V14.01,2013-04-27 05:35:00,
2013-04-26 22:45:00,54.5,46.0,30.16,WNW,295,2.0,4.0,73,0.00,,SKC,0.00,VWS V14.01,2013-04-27 05:45:00,
2013-04-26 22:50:00,54.2,46.1,30.16,West,281,1.0,4.0,74,0.00,,SKC,0.00,VWS V14.01,2013-04-27 05:50:00,
2013-04-26 22:55:00,54.0,46.3,30.16,WNW,288,0.0,2.0,75,0.00,,SKC,0.00,VWS V14.01,2013-04-27 05:55:00,
2013-04-26 23:05:00,53.6,46.2,30.16,NNW,329,0.0,2.0,76,0.00,,SKC,0.00,VWS V14.01,2013-04-27 06:05:00,
2013-04-26 23:10:00,53.4,46.0,30.16,West,266,1.0,4.0,76,0.00,,SKC,0.00,VWS V14.01,2013-04-27 06:10:00,
2013-04-26 23:15:00,53.2,46.2,30.16,WNW,288,1.0,3.0,77,0.00,,SKC,0.00,VWS V14.01,2013-04-27 06:15:00,
2013-04-26 23:25:00,52.9,45.9,30.16,WNW,288,0.0,0.0,77,0.00,,SKC,0.00,VWS V14.01,2013-04-27 06:25:00,
2013-04-26 23:30:00,52.7,46.0,30.16,WNW,288,0.0,0.0,78,0.00,,SKC,0.00,VWS V14.01,2013-04-27 06:30:00,
2013-04-26 23:35:00,52.5,45.8,30.16,WNW,288,0.0,0.0,78,0.00,,SKC,0.00,VWS V14.01,2013-04-27 06:35:00,
2013-04-26 23:40:00,52.3,45.7,30.16,WNW,287,0.0,1.0,78,0.00,,SKC,0.00,VWS V14.01,2013-04-27 06:40:00,
2013-04-26 23:45:00,52.2,45.6,30.16,WNW,287,0.0,1.0,78,0.00,,SKC,0.00,VWS V14.01,2013-04-27 06:45:00,
2013-04-26 23:50:00,52.1,45.5,30.16,NW,326,0.0,4.0,78,0.00,,SKC,0.00,VWS V14.01,2013-04-27 06:50:00,
2013-04-26 23:55:00,52.0,45.4,30.16,NW,326,0.0,2.0,78,0.00,,SKC,0.00,VWS V14.01,2013-04-27 06:55:00,